This is the latest recevied weather packets stored in our database for station/object EFTP. If no packets are shown the sender has not sent any weather packets the latest 10 day(s).
| Time | Temp. | Humidity | Pressure | Rain* | Wind** | Luminosity | Snow |
|---|---|---|---|---|---|---|---|
| 1777615618 | 9.44° C | 67% | 1020.5 hPa | - | - | - | - |
| 1777614418 | 8.89° C | 70% | 1020.6 hPa | - | - | - | - |
| 1777613217 | 7.78° C | 74% | 1020.7 hPa | - | - | - | - |
| 1777612018 | 7.22° C | 78% | 1020.7 hPa | - | - | - | - |
| 1777610818 | 6.67° C | 83% | 1020.8 hPa | - | - | - | - |
| 1777609618 | 5.56° C | 86% | 1021 hPa | - | - | - | - |
| 1777608418 | 5° C | 89% | 1021 hPa | - | - | - | - |
| 1777607218 | 4.44° C | 90% | 1021 hPa | - | - | - | - |
| 1777606018 | 2.78° C | 93% | 1021.3 hPa | - | - | - | - |
| 1777604818 | 2.22° C | 92% | 1021.4 hPa | - | - | - | - |
| 1777603619 | 1.67° C | 92% | 1021.5 hPa | - | - | - | - |
| 1777602418 | 1.67° C | 96% | 1021.5 hPa | - | - | - | - |
| 1777585617 | 9.44° C | 70% | 1021.6 hPa | - | - | - | - |
| 1777583216 | 9.44° C | 68% | 1021.5 hPa | - | - | - | - |
| 1777579616 | 10.56° C | 64% | 1021.1 hPa | - | - | - | - |
| 1777576016 | 12.22° C | 60% | 1020.9 hPa | - | - | - | - |
| 1777571216 | 13.89° C | 55% | 1020.1 hPa | - | - | - | - |
| 1777568816 | 14.44° C | 54% | 1019.7 hPa | - | - | - | - |
| 1777564016 | 15.56° C | 49% | 1019.4 hPa | - | - | - | - |
| 1777562815 | 15.56° C | 46% | 1019.4 hPa | - | - | - | - |
| 1777559215 | 16.11° C | 46% | 1019.5 hPa | - | - | - | - |
| 1777555615 | 15.56° C | 47% | 1019.6 hPa | - | - | - | - |
| 1777554414 | 15.56° C | 45% | 1019.7 hPa | - | - | - | - |
| 1777552015 | 16.67° C | 46% | 1019.8 hPa | - | - | - | - |
| 1777549615 | 15° C | 48% | 1019.9 hPa | - | - | - | - |
* Rain since midnight (hover to see other rain measurements)
** Current wind speed in m/s (hover to see current wind gust speed)